Playa De Oro International Airport
MMZO : now visible

Airfield :











YOU CAN JOIN US ON...

 
LOGIN :

Register | Disclaimer

   EN    FR    IT 

 









Legend :    VFR   Marginal VFR   IFR   Intensive IFR   Very Intensive IFR
Visi :
Ceiling :
>= 8 km
>= 3000ft
5 to 8 km
1000 to 3000 ft
1500m to 5 km
500 to 1000 ft
800 to 1500m
200 to 500 ft
< 800m
< 200 ft
Symbols :   Thunderstorms  Fog  Heavy snow  Heavy precipitations  Wind > 20 kt







- Airport Elevation : 30 ft
- IATA code : ZLO


MMZO - Playa De Oro International

CURRENT METAR :
  • 261940Z 15010KT 10SM SCT020 BKN250 30/25 A2987 RMK 8/109 TCU DSNT NE

EXPIRED METARs :
  • 261842Z 15014KT 12SM SCT025 BKN250 31/24 A2989 RMK 8/101
  • 261744Z 12008KT 10SM SCT025 BKN250 31/26 A2989 RMK SLP101 8/101

TAF TAF MMZO
Valid from the 26 at 18:00 until the 27 at 18:00 UTC


261730Z 2618/2718 21005KT P6SM SCT020 BKN250
FM262100 23012KT P6SM SCT020CB BKN100
TEMPO 2623/2703 5SM TSRA BKN020CB
FM270400 00000KT P6SM VC TS SCT020CB BKN100
PROB40 2704/2708 6SM -TSRA BKN020CB
FM270900 00000KT 6SM HZ SCT020 BKN100
MMFR FIR / North America



MET'MAP, your aeronautical weather chart ! - Copyright ORBIFLY December 2007 - Disclaimer

ORBIFLY MET'MAP TEAM :

Programming & Development : Alexandra Zaïnal
Concept & Development : Baudouin d'Aumeries
Co-Development & Prog : Marc-Olivier Méhu
Technical & hardware support : Manuel Goepfert

Contact : metmap@orbifly.com




SOURCES & CREDITS :

   NOAA       Earth
Advisory